sensor_id;sensor_type;location;lat;lon;timestamp;P1;durP1;ratioP1;P2;durP2;ratioP2
64832;SDS011;51290;45.060;38.948;2023-08-21T00:01:21;7.88;;;4.68;;
64832;SDS011;51290;45.060;38.948;2023-08-21T00:03:47;10.10;;;5.55;;
64832;SDS011;51290;45.060;38.948;2023-08-21T00:06:13;12.05;;;5.65;;
64832;SDS011;51290;45.060;38.948;2023-08-21T00:08:39;8.85;;;5.45;;
64832;SDS011;51290;45.060;38.948;2023-08-21T00:11:05;13.27;;;5.32;;
64832;SDS011;51290;45.060;38.948;2023-08-21T00:13:31;16.33;;;6.03;;
64832;SDS011;51290;45.060;38.948;2023-08-21T00:15:57;8.85;;;5.22;;
64832;SDS011;51290;45.060;38.948;2023-08-21T00:18:23;9.57;;;5.38;;
64832;SDS011;51290;45.060;38.948;2023-08-21T00:20:49;14.35;;;5.07;;
64832;SDS011;51290;45.060;38.948;2023-08-21T00:23:15;11.40;;;5.38;;
64832;SDS011;51290;45.060;38.948;2023-08-21T00:25:42;17.67;;;5.35;;
64832;SDS011;51290;45.060;38.948;2023-08-21T00:28:11;13.02;;;5.38;;
64832;SDS011;51290;45.060;38.948;2023-08-21T00:30:37;9.05;;;4.95;;
64832;SDS011;51290;45.060;38.948;2023-08-21T00:33:04;10.02;;;5.75;;
64832;SDS011;51290;45.060;38.948;2023-08-21T00:35:30;12.00;;;5.78;;
64832;SDS011;51290;45.060;38.948;2023-08-21T00:37:56;15.35;;;5.70;;
64832;SDS011;51290;45.060;38.948;2023-08-21T00:40:22;10.40;;;4.90;;
64832;SDS011;51290;45.060;38.948;2023-08-21T00:42:48;12.57;;;5.20;;
64832;SDS011;51290;45.060;38.948;2023-08-21T00:45:14;12.02;;;5.93;;
64832;SDS011;51290;45.060;38.948;2023-08-21T00:47:41;9.80;;;6.35;;
64832;SDS011;51290;45.060;38.948;2023-08-21T00:50:08;9.55;;;5.53;;
64832;SDS011;51290;45.060;38.948;2023-08-21T00:52:37;12.77;;;6.03;;
64832;SDS011;51290;45.060;38.948;2023-08-21T00:55:05;13.02;;;6.18;;
64832;SDS011;51290;45.060;38.948;2023-08-21T00:57:33;12.38;;;6.20;;
64832;SDS011;51290;45.060;38.948;2023-08-21T00:59:59;15.85;;;6.53;;
64832;SDS011;51290;45.060;38.948;2023-08-21T01:02:26;12.18;;;6.90;;
64832;SDS011;51290;45.060;38.948;2023-08-21T01:04:52;16.33;;;6.40;;
64832;SDS011;51290;45.060;38.948;2023-08-21T01:07:18;11.45;;;6.60;;
64832;SDS011;51290;45.060;38.948;2023-08-21T01:12:15;10.82;;;7.18;;
64832;SDS011;51290;45.060;38.948;2023-08-21T01:17:20;13.05;;;5.95;;
64832;SDS011;51290;45.060;38.948;2023-08-21T01:19:48;10.13;;;5.18;;
64832;SDS011;51290;45.060;38.948;2023-08-21T01:22:16;10.23;;;5.43;;
64832;SDS011;51290;45.060;38.948;2023-08-21T01:24:42;11.95;;;5.45;;
64832;SDS011;51290;45.060;38.948;2023-08-21T01:27:10;16.25;;;6.20;;
64832;SDS011;51290;45.060;38.948;2023-08-21T01:29:41;11.45;;;5.82;;
64832;SDS011;51290;45.060;38.948;2023-08-21T01:32:09;11.90;;;5.80;;
64832;SDS011;51290;45.060;38.948;2023-08-21T01:34:43;7.72;;;5.47;;
64832;SDS011;51290;45.060;38.948;2023-08-21T01:37:11;12.15;;;6.05;;
64832;SDS011;51290;45.060;38.948;2023-08-21T01:39:38;15.63;;;5.97;;
64832;SDS011;51290;45.060;38.948;2023-08-21T01:42:04;12.00;;;5.85;;
64832;SDS011;51290;45.060;38.948;2023-08-21T01:44:31;13.15;;;6.22;;
64832;SDS011;51290;45.060;38.948;2023-08-21T01:46:57;8.48;;;5.38;;
64832;SDS011;51290;45.060;38.948;2023-08-21T01:49:22;9.68;;;5.38;;
64832;SDS011;51290;45.060;38.948;2023-08-21T01:51:48;11.88;;;6.05;;
64832;SDS011;51290;45.060;38.948;2023-08-21T01:54:14;11.38;;;5.80;;
64832;SDS011;51290;45.060;38.948;2023-08-21T01:56:40;12.88;;;5.55;;
64832;SDS011;51290;45.060;38.948;2023-08-21T01:59:06;9.40;;;5.78;;
64832;SDS011;51290;45.060;38.948;2023-08-21T02:01:33;14.65;;;6.28;;
64832;SDS011;51290;45.060;38.948;2023-08-21T02:03:59;15.23;;;6.90;;
64832;SDS011;51290;45.060;38.948;2023-08-21T02:06:25;14.05;;;7.65;;
64832;SDS011;51290;45.060;38.948;2023-08-21T02:08:51;15.15;;;7.32;;
64832;SDS011;51290;45.060;38.948;2023-08-21T02:11:17;17.08;;;7.57;;
64832;SDS011;51290;45.060;38.948;2023-08-21T02:13:43;13.10;;;7.82;;
64832;SDS011;51290;45.060;38.948;2023-08-21T02:16:09;16.73;;;7.65;;
64832;SDS011;51290;45.060;38.948;2023-08-21T02:18:35;21.48;;;7.10;;
64832;SDS011;51290;45.060;38.948;2023-08-21T02:21:01;15.48;;;8.23;;
64832;SDS011;51290;45.060;38.948;2023-08-21T02:23:27;16.77;;;9.60;;
64832;SDS011;51290;45.060;38.948;2023-08-21T02:25:54;16.40;;;8.50;;
64832;SDS011;51290;45.060;38.948;2023-08-21T02:28:20;15.93;;;9.13;;
64832;SDS011;51290;45.060;38.948;2023-08-21T02:30:47;11.15;;;7.93;;
64832;SDS011;51290;45.060;38.948;2023-08-21T02:33:13;17.83;;;8.82;;
64832;SDS011;51290;45.060;38.948;2023-08-21T02:35:39;16.13;;;9.07;;
64832;SDS011;51290;45.060;38.948;2023-08-21T02:38:05;22.33;;;10.25;;
64832;SDS011;51290;45.060;38.948;2023-08-21T02:40:34;22.10;;;8.65;;
64832;SDS011;51290;45.060;38.948;2023-08-21T02:43:00;21.35;;;9.50;;
64832;SDS011;51290;45.060;38.948;2023-08-21T02:45:26;14.20;;;8.77;;
64832;SDS011;51290;45.060;38.948;2023-08-21T02:47:52;15.77;;;9.63;;
64832;SDS011;51290;45.060;38.948;2023-08-21T02:50:18;13.45;;;8.95;;
64832;SDS011;51290;45.060;38.948;2023-08-21T02:52:44;19.25;;;9.25;;
64832;SDS011;51290;45.060;38.948;2023-08-21T02:55:10;15.38;;;9.40;;
64832;SDS011;51290;45.060;38.948;2023-08-21T02:57:36;13.60;;;8.93;;
64832;SDS011;51290;45.060;38.948;2023-08-21T03:00:02;17.88;;;9.98;;
64832;SDS011;51290;45.060;38.948;2023-08-21T03:02:29;16.15;;;9.27;;
64832;SDS011;51290;45.060;38.948;2023-08-21T03:04:55;15.38;;;9.38;;
64832;SDS011;51290;45.060;38.948;2023-08-21T03:07:21;15.98;;;9.63;;
64832;SDS011;51290;45.060;38.948;2023-08-21T03:09:48;12.77;;;9.05;;
64832;SDS011;51290;45.060;38.948;2023-08-21T03:12:15;15.50;;;9.73;;
64832;SDS011;51290;45.060;38.948;2023-08-21T03:14:41;18.55;;;10.00;;
64832;SDS011;51290;45.060;38.948;2023-08-21T03:17:08;11.32;;;8.50;;
64832;SDS011;51290;45.060;38.948;2023-08-21T03:19:34;19.23;;;9.82;;
64832;SDS011;51290;45.060;38.948;2023-08-21T03:22:00;17.35;;;9.98;;
64832;SDS011;51290;45.060;38.948;2023-08-21T03:24:26;20.67;;;9.90;;
64832;SDS011;51290;45.060;38.948;2023-08-21T03:26:52;22.77;;;9.23;;
64832;SDS011;51290;45.060;38.948;2023-08-21T03:29:18;20.67;;;10.35;;
64832;SDS011;51290;45.060;38.948;2023-08-21T03:31:46;16.73;;;9.55;;
64832;SDS011;51290;45.060;38.948;2023-08-21T03:34:14;20.95;;;9.93;;
64832;SDS011;51290;45.060;38.948;2023-08-21T03:36:41;26.42;;;10.07;;
64832;SDS011;51290;45.060;38.948;2023-08-21T03:39:07;23.55;;;9.82;;
64832;SDS011;51290;45.060;38.948;2023-08-21T03:41:38;17.17;;;9.15;;
64832;SDS011;51290;45.060;38.948;2023-08-21T03:44:04;14.52;;;9.57;;
64832;SDS011;51290;45.060;38.948;2023-08-21T03:46:30;19.13;;;9.35;;
64832;SDS011;51290;45.060;38.948;2023-08-21T03:48:56;19.67;;;10.02;;
64832;SDS011;51290;45.060;38.948;2023-08-21T03:51:23;20.83;;;9.00;;
64832;SDS011;51290;45.060;38.948;2023-08-21T03:53:50;24.08;;;10.57;;
64832;SDS011;51290;45.060;38.948;2023-08-21T03:56:16;14.57;;;8.32;;
64832;SDS011;51290;45.060;38.948;2023-08-21T03:58:42;14.50;;;9.13;;
64832;SDS011;51290;45.060;38.948;2023-08-21T04:01:08;17.98;;;8.98;;
64832;SDS011;51290;45.060;38.948;2023-08-21T04:03:34;15.27;;;8.95;;
64832;SDS011;51290;45.060;38.948;2023-08-21T04:06:01;23.33;;;9.70;;
64832;SDS011;51290;45.060;38.948;2023-08-21T04:08:27;18.55;;;9.18;;
64832;SDS011;51290;45.060;38.948;2023-08-21T04:10:53;17.95;;;9.30;;
64832;SDS011;51290;45.060;38.948;2023-08-21T04:13:20;19.38;;;9.20;;
64832;SDS011;51290;45.060;38.948;2023-08-21T04:15:48;16.90;;;9.60;;
64832;SDS011;51290;45.060;38.948;2023-08-21T04:18:14;20.48;;;9.73;;
64832;SDS011;51290;45.060;38.948;2023-08-21T04:20:40;17.00;;;10.35;;
64832;SDS011;51290;45.060;38.948;2023-08-21T04:23:07;22.77;;;9.40;;
64832;SDS011;51290;45.060;38.948;2023-08-21T04:25:33;16.90;;;8.80;;
64832;SDS011;51290;45.060;38.948;2023-08-21T04:27:59;15.07;;;8.68;;
64832;SDS011;51290;45.060;38.948;2023-08-21T04:30:26;12.45;;;9.00;;
64832;SDS011;51290;45.060;38.948;2023-08-21T04:32:52;18.77;;;9.77;;
64832;SDS011;51290;45.060;38.948;2023-08-21T04:35:18;18.63;;;9.60;;
64832;SDS011;51290;45.060;38.948;2023-08-21T04:37:48;22.88;;;9.77;;
64832;SDS011;51290;45.060;38.948;2023-08-21T04:40:16;19.05;;;8.57;;
64832;SDS011;51290;45.060;38.948;2023-08-21T04:42:46;19.27;;;10.25;;
64832;SDS011;51290;45.060;38.948;2023-08-21T04:45:13;17.02;;;8.60;;
64832;SDS011;51290;45.060;38.948;2023-08-21T04:47:39;15.32;;;8.63;;
64832;SDS011;51290;45.060;38.948;2023-08-21T04:50:05;27.63;;;9.68;;
64832;SDS011;51290;45.060;38.948;2023-08-21T04:52:32;15.15;;;9.25;;
64832;SDS011;51290;45.060;38.948;2023-08-21T04:54:59;14.55;;;9.25;;
64832;SDS011;51290;45.060;38.948;2023-08-21T04:57:26;12.70;;;8.73;;
64832;SDS011;51290;45.060;38.948;2023-08-21T04:59:53;20.23;;;9.35;;
64832;SDS011;51290;45.060;38.948;2023-08-21T05:02:21;28.80;;;9.75;;
64832;SDS011;51290;45.060;38.948;2023-08-21T05:04:49;17.75;;;9.65;;
64832;SDS011;51290;45.060;38.948;2023-08-21T05:07:15;24.92;;;10.95;;
64832;SDS011;51290;45.060;38.948;2023-08-21T05:09:42;22.30;;;11.38;;
64832;SDS011;51290;45.060;38.948;2023-08-21T05:12:10;34.15;;;12.23;;
64832;SDS011;51290;45.060;38.948;2023-08-21T05:14:36;31.42;;;11.63;;
64832;SDS011;51290;45.060;38.948;2023-08-21T05:17:02;20.45;;;10.00;;
64832;SDS011;51290;45.060;38.948;2023-08-21T05:19:29;27.10;;;10.07;;
64832;SDS011;51290;45.060;38.948;2023-08-21T05:21:56;21.15;;;10.27;;
64832;SDS011;51290;45.060;38.948;2023-08-21T05:24:22;14.75;;;9.00;;
64832;SDS011;51290;45.060;38.948;2023-08-21T05:26:56;16.27;;;9.65;;
64832;SDS011;51290;45.060;38.948;2023-08-21T05:29:22;21.02;;;9.00;;
64832;SDS011;51290;45.060;38.948;2023-08-21T05:31:48;19.52;;;9.20;;
64832;SDS011;51290;45.060;38.948;2023-08-21T05:34:14;16.98;;;9.63;;
64832;SDS011;51290;45.060;38.948;2023-08-21T05:36:40;19.48;;;8.73;;
64832;SDS011;51290;45.060;38.948;2023-08-21T05:39:07;17.08;;;9.18;;
64832;SDS011;51290;45.060;38.948;2023-08-21T05:41:34;18.67;;;8.70;;
64832;SDS011;51290;45.060;38.948;2023-08-21T05:44:00;12.82;;;8.60;;
64832;SDS011;51290;45.060;38.948;2023-08-21T05:46:27;13.35;;;7.60;;
64832;SDS011;51290;45.060;38.948;2023-08-21T05:48:53;19.30;;;7.90;;
64832;SDS011;51290;45.060;38.948;2023-08-21T05:51:19;17.33;;;6.97;;
64832;SDS011;51290;45.060;38.948;2023-08-21T05:53:45;13.98;;;6.10;;
64832;SDS011;51290;45.060;38.948;2023-08-21T05:56:11;15.02;;;5.90;;
64832;SDS011;51290;45.060;38.948;2023-08-21T05:58:37;12.35;;;5.82;;
64832;SDS011;51290;45.060;38.948;2023-08-21T06:01:03;18.75;;;6.22;;
64832;SDS011;51290;45.060;38.948;2023-08-21T06:03:32;9.35;;;5.82;;
64832;SDS011;51290;45.060;38.948;2023-08-21T06:06:09;14.07;;;6.43;;
64832;SDS011;51290;45.060;38.948;2023-08-21T06:08:35;10.50;;;5.45;;
64832;SDS011;51290;45.060;38.948;2023-08-21T06:11:02;9.98;;;5.45;;
64832;SDS011;51290;45.060;38.948;2023-08-21T06:13:28;14.48;;;5.20;;
64832;SDS011;51290;45.060;38.948;2023-08-21T06:15:55;18.10;;;5.60;;
64832;SDS011;51290;45.060;38.948;2023-08-21T06:18:22;9.48;;;5.68;;
64832;SDS011;51290;45.060;38.948;2023-08-21T06:20:49;12.32;;;5.88;;
64832;SDS011;51290;45.060;38.948;2023-08-21T06:23:21;11.27;;;5.47;;
64832;SDS011;51290;45.060;38.948;2023-08-21T06:25:48;14.75;;;5.80;;
64832;SDS011;51290;45.060;38.948;2023-08-21T06:28:15;16.65;;;6.10;;
64832;SDS011;51290;45.060;38.948;2023-08-21T06:30:41;18.75;;;6.18;;
64832;SDS011;51290;45.060;38.948;2023-08-21T06:33:08;15.57;;;6.60;;
64832;SDS011;51290;45.060;38.948;2023-08-21T06:35:37;12.38;;;5.88;;
64832;SDS011;51290;45.060;38.948;2023-08-21T06:38:03;12.15;;;5.55;;
64832;SDS011;51290;45.060;38.948;2023-08-21T06:40:31;10.65;;;5.57;;
64832;SDS011;51290;45.060;38.948;2023-08-21T06:42:57;12.18;;;5.60;;
64832;SDS011;51290;45.060;38.948;2023-08-21T06:45:27;12.25;;;5.47;;
64832;SDS011;51290;45.060;38.948;2023-08-21T06:47:57;17.63;;;5.00;;
64832;SDS011;51290;45.060;38.948;2023-08-21T06:50:23;8.50;;;5.05;;
64832;SDS011;51290;45.060;38.948;2023-08-21T06:52:49;8.80;;;4.82;;
64832;SDS011;51290;45.060;38.948;2023-08-21T06:55:15;11.40;;;4.78;;
64832;SDS011;51290;45.060;38.948;2023-08-21T06:57:41;10.18;;;5.38;;
64832;SDS011;51290;45.060;38.948;2023-08-21T07:00:07;16.25;;;5.32;;
64832;SDS011;51290;45.060;38.948;2023-08-21T07:02:34;11.82;;;5.63;;
64832;SDS011;51290;45.060;38.948;2023-08-21T07:05:01;17.08;;;5.53;;
64832;SDS011;51290;45.060;38.948;2023-08-21T07:07:28;8.57;;;4.70;;
64832;SDS011;51290;45.060;38.948;2023-08-21T07:09:54;13.85;;;5.20;;
64832;SDS011;51290;45.060;38.948;2023-08-21T07:12:21;7.88;;;4.85;;
64832;SDS011;51290;45.060;38.948;2023-08-21T07:14:48;11.30;;;4.93;;
64832;SDS011;51290;45.060;38.948;2023-08-21T07:17:14;6.95;;;4.70;;
64832;SDS011;51290;45.060;38.948;2023-08-21T07:19:40;5.63;;;4.20;;
64832;SDS011;51290;45.060;38.948;2023-08-21T07:22:06;12.90;;;4.72;;
64832;SDS011;51290;45.060;38.948;2023-08-21T07:24:32;13.50;;;5.15;;
64832;SDS011;51290;45.060;38.948;2023-08-21T07:26:58;12.77;;;4.93;;
64832;SDS011;51290;45.060;38.948;2023-08-21T07:29:24;8.43;;;4.90;;
64832;SDS011;51290;45.060;38.948;2023-08-21T07:31:50;7.90;;;4.90;;
64832;SDS011;51290;45.060;38.948;2023-08-21T07:34:16;10.50;;;4.70;;
64832;SDS011;51290;45.060;38.948;2023-08-21T07:36:42;10.77;;;4.70;;
64832;SDS011;51290;45.060;38.948;2023-08-21T07:39:08;13.30;;;4.63;;
64832;SDS011;51290;45.060;38.948;2023-08-21T07:41:34;10.82;;;5.03;;
64832;SDS011;51290;45.060;38.948;2023-08-21T07:44:01;9.40;;;4.72;;
64832;SDS011;51290;45.060;38.948;2023-08-21T07:46:28;12.02;;;4.38;;
64832;SDS011;51290;45.060;38.948;2023-08-21T07:48:54;8.50;;;4.95;;
64832;SDS011;51290;45.060;38.948;2023-08-21T07:51:20;12.95;;;5.25;;
64832;SDS011;51290;45.060;38.948;2023-08-21T07:53:48;11.88;;;5.22;;
64832;SDS011;51290;45.060;38.948;2023-08-21T07:56:14;11.07;;;4.13;;
64832;SDS011;51290;45.060;38.948;2023-08-21T07:58:40;12.40;;;4.85;;
64832;SDS011;51290;45.060;38.948;2023-08-21T08:01:06;9.45;;;3.95;;
64832;SDS011;51290;45.060;38.948;2023-08-21T08:03:32;11.05;;;4.43;;
64832;SDS011;51290;45.060;38.948;2023-08-21T08:05:58;13.50;;;4.60;;
64832;SDS011;51290;45.060;38.948;2023-08-21T08:08:24;10.65;;;5.20;;
64832;SDS011;51290;45.060;38.948;2023-08-21T08:10:52;6.80;;;3.95;;
64832;SDS011;51290;45.060;38.948;2023-08-21T08:13:19;6.97;;;3.78;;
64832;SDS011;51290;45.060;38.948;2023-08-21T08:15:45;8.45;;;4.35;;
64832;SDS011;51290;45.060;38.948;2023-08-21T08:18:11;7.28;;;4.38;;
64832;SDS011;51290;45.060;38.948;2023-08-21T08:20:38;14.90;;;4.57;;
64832;SDS011;51290;45.060;38.948;2023-08-21T08:23:04;8.85;;;4.85;;
64832;SDS011;51290;45.060;38.948;2023-08-21T08:25:30;9.38;;;5.00;;
64832;SDS011;51290;45.060;38.948;2023-08-21T08:27:56;8.80;;;4.35;;
64832;SDS011;51290;45.060;38.948;2023-08-21T08:30:22;7.85;;;4.63;;
64832;SDS011;51290;45.060;38.948;2023-08-21T08:32:49;10.68;;;4.88;;
64832;SDS011;51290;45.060;38.948;2023-08-21T08:35:15;10.75;;;4.93;;
64832;SDS011;51290;45.060;38.948;2023-08-21T08:37:41;11.25;;;5.03;;
64832;SDS011;51290;45.060;38.948;2023-08-21T08:40:08;15.57;;;5.28;;
64832;SDS011;51290;45.060;38.948;2023-08-21T08:42:35;11.05;;;4.78;;
64832;SDS011;51290;45.060;38.948;2023-08-21T08:45:02;10.27;;;5.68;;
64832;SDS011;51290;45.060;38.948;2023-08-21T08:47:32;9.18;;;4.65;;
64832;SDS011;51290;45.060;38.948;2023-08-21T08:50:00;11.48;;;4.80;;
64832;SDS011;51290;45.060;38.948;2023-08-21T08:52:29;10.30;;;4.88;;
64832;SDS011;51290;45.060;38.948;2023-08-21T08:54:59;19.23;;;5.40;;
64832;SDS011;51290;45.060;38.948;2023-08-21T08:57:25;12.77;;;5.13;;
64832;SDS011;51290;45.060;38.948;2023-08-21T08:59:51;11.40;;;5.05;;
64832;SDS011;51290;45.060;38.948;2023-08-21T09:02:17;8.77;;;5.07;;
64832;SDS011;51290;45.060;38.948;2023-08-21T09:04:43;11.85;;;5.53;;
64832;SDS011;51290;45.060;38.948;2023-08-21T09:07:10;10.00;;;4.93;;
64832;SDS011;51290;45.060;38.948;2023-08-21T09:09:41;9.50;;;5.10;;
64832;SDS011;51290;45.060;38.948;2023-08-21T09:12:11;8.57;;;4.50;;
64832;SDS011;51290;45.060;38.948;2023-08-21T09:14:39;13.10;;;5.78;;
64832;SDS011;51290;45.060;38.948;2023-08-21T09:17:06;11.48;;;5.00;;
64832;SDS011;51290;45.060;38.948;2023-08-21T09:19:32;8.80;;;4.78;;
64832;SDS011;51290;45.060;38.948;2023-08-21T09:22:02;8.13;;;4.03;;
64832;SDS011;51290;45.060;38.948;2023-08-21T09:24:34;15.57;;;4.72;;
64832;SDS011;51290;45.060;38.948;2023-08-21T09:27:00;9.02;;;4.45;;
64832;SDS011;51290;45.060;38.948;2023-08-21T09:29:27;10.00;;;4.65;;
64832;SDS011;51290;45.060;38.948;2023-08-21T09:32:04;6.85;;;4.30;;
64832;SDS011;51290;45.060;38.948;2023-08-21T09:34:37;7.32;;;4.68;;
64832;SDS011;51290;45.060;38.948;2023-08-21T09:37:06;8.95;;;4.22;;
64832;SDS011;51290;45.060;38.948;2023-08-21T09:39:36;12.05;;;4.18;;
64832;SDS011;51290;45.060;38.948;2023-08-21T09:42:06;8.57;;;4.10;;
64832;SDS011;51290;45.060;38.948;2023-08-21T09:44:37;8.88;;;4.90;;
64832;SDS011;51290;45.060;38.948;2023-08-21T09:47:10;10.52;;;4.50;;
64832;SDS011;51290;45.060;38.948;2023-08-21T09:49:37;15.52;;;4.93;;
64832;SDS011;51290;45.060;38.948;2023-08-21T09:52:08;7.22;;;4.47;;
64832;SDS011;51290;45.060;38.948;2023-08-21T09:54:38;6.07;;;4.57;;
64832;SDS011;51290;45.060;38.948;2023-08-21T09:57:04;7.28;;;4.78;;
64832;SDS011;51290;45.060;38.948;2023-08-21T09:59:31;10.80;;;4.78;;
64832;SDS011;51290;45.060;38.948;2023-08-21T10:01:58;6.10;;;4.03;;
64832;SDS011;51290;45.060;38.948;2023-08-21T10:04:27;6.75;;;3.80;;
64832;SDS011;51290;45.060;38.948;2023-08-21T10:06:55;7.53;;;4.25;;
64832;SDS011;51290;45.060;38.948;2023-08-21T10:09:22;7.28;;;4.40;;
64832;SDS011;51290;45.060;38.948;2023-08-21T10:11:49;11.98;;;6.05;;
64832;SDS011;51290;45.060;38.948;2023-08-21T10:14:19;7.15;;;4.50;;
64832;SDS011;51290;45.060;38.948;2023-08-21T10:16:47;8.38;;;4.00;;
64832;SDS011;51290;45.060;38.948;2023-08-21T10:19:14;7.85;;;4.45;;
64832;SDS011;51290;45.060;38.948;2023-08-21T10:21:40;7.75;;;4.57;;
64832;SDS011;51290;45.060;38.948;2023-08-21T10:24:06;10.30;;;4.38;;
64832;SDS011;51290;45.060;38.948;2023-08-21T10:26:34;13.65;;;3.95;;
64832;SDS011;51290;45.060;38.948;2023-08-21T10:29:04;4.38;;;3.38;;
64832;SDS011;51290;45.060;38.948;2023-08-21T10:34:04;5.53;;;3.70;;
64832;SDS011;51290;45.060;38.948;2023-08-21T10:39:13;11.73;;;4.03;;
64832;SDS011;51290;45.060;38.948;2023-08-21T10:49:55;14.32;;;4.00;;
64832;SDS011;51290;45.060;38.948;2023-08-21T10:54:57;6.68;;;4.03;;
64832;SDS011;51290;45.060;38.948;2023-08-21T10:57:25;12.43;;;4.72;;
64832;SDS011;51290;45.060;38.948;2023-08-21T10:59:54;7.75;;;4.18;;
64832;SDS011;51290;45.060;38.948;2023-08-21T11:02:22;10.98;;;4.38;;
64832;SDS011;51290;45.060;38.948;2023-08-21T11:04:50;7.88;;;4.13;;
64832;SDS011;51290;45.060;38.948;2023-08-21T11:07:16;6.28;;;4.00;;
64832;SDS011;51290;45.060;38.948;2023-08-21T11:09:43;7.65;;;3.47;;
64832;SDS011;51290;45.060;38.948;2023-08-21T11:12:10;7.85;;;4.32;;
64832;SDS011;51290;45.060;38.948;2023-08-21T11:14:38;7.63;;;4.20;;
64832;SDS011;51290;45.060;38.948;2023-08-21T11:17:05;6.20;;;3.78;;
64832;SDS011;51290;45.060;38.948;2023-08-21T11:19:34;10.10;;;4.53;;
64832;SDS011;51290;45.060;38.948;2023-08-21T11:22:01;6.03;;;4.15;;
64832;SDS011;51290;45.060;38.948;2023-08-21T11:27:03;6.72;;;4.28;;
64832;SDS011;51290;45.060;38.948;2023-08-21T11:29:36;9.07;;;4.18;;
64832;SDS011;51290;45.060;38.948;2023-08-21T11:32:13;7.57;;;4.38;;
64832;SDS011;51290;45.060;38.948;2023-08-21T11:37:42;7.80;;;4.00;;
64832;SDS011;51290;45.060;38.948;2023-08-21T11:40:13;5.85;;;3.92;;
64832;SDS011;51290;45.060;38.948;2023-08-21T11:42:40;4.72;;;3.60;;
64832;SDS011;51290;45.060;38.948;2023-08-21T11:45:06;7.93;;;4.63;;
64832;SDS011;51290;45.060;38.948;2023-08-21T11:47:33;12.32;;;4.55;;
64832;SDS011;51290;45.060;38.948;2023-08-21T11:50:03;6.25;;;3.88;;
64832;SDS011;51290;45.060;38.948;2023-08-21T11:52:31;9.73;;;4.10;;
64832;SDS011;51290;45.060;38.948;2023-08-21T11:54:58;6.10;;;4.22;;
64832;SDS011;51290;45.060;38.948;2023-08-21T11:57:24;8.50;;;4.78;;
64832;SDS011;51290;45.060;38.948;2023-08-21T11:59:51;6.75;;;3.95;;
64832;SDS011;51290;45.060;38.948;2023-08-21T12:02:27;8.82;;;4.43;;
64832;SDS011;51290;45.060;38.948;2023-08-21T12:05:04;7.90;;;4.15;;
64832;SDS011;51290;45.060;38.948;2023-08-21T12:07:31;5.82;;;4.10;;
64832;SDS011;51290;45.060;38.948;2023-08-21T12:09:58;6.38;;;3.95;;
64832;SDS011;51290;45.060;38.948;2023-08-21T12:12:24;6.82;;;4.00;;
64832;SDS011;51290;45.060;38.948;2023-08-21T12:14:50;8.68;;;4.22;;
64832;SDS011;51290;45.060;38.948;2023-08-21T12:17:16;11.18;;;4.75;;
64832;SDS011;51290;45.060;38.948;2023-08-21T12:19:42;6.78;;;4.00;;
64832;SDS011;51290;45.060;38.948;2023-08-21T12:22:09;7.63;;;4.90;;
64832;SDS011;51290;45.060;38.948;2023-08-21T12:24:35;7.13;;;4.70;;
64832;SDS011;51290;45.060;38.948;2023-08-21T12:27:02;6.28;;;4.53;;
64832;SDS011;51290;45.060;38.948;2023-08-21T12:29:29;9.05;;;5.05;;
64832;SDS011;51290;45.060;38.948;2023-08-21T12:31:55;6.53;;;4.43;;
64832;SDS011;51290;45.060;38.948;2023-08-21T12:34:21;9.52;;;5.20;;
64832;SDS011;51290;45.060;38.948;2023-08-21T12:36:49;6.97;;;4.57;;
64832;SDS011;51290;45.060;38.948;2023-08-21T12:39:16;7.18;;;5.20;;
64832;SDS011;51290;45.060;38.948;2023-08-21T12:41:43;7.15;;;4.80;;
64832;SDS011;51290;45.060;38.948;2023-08-21T12:44:09;7.22;;;4.65;;
64832;SDS011;51290;45.060;38.948;2023-08-21T12:46:35;5.40;;;4.00;;
64832;SDS011;51290;45.060;38.948;2023-08-21T12:49:02;8.85;;;4.65;;
64832;SDS011;51290;45.060;38.948;2023-08-21T12:51:28;5.88;;;4.50;;
64832;SDS011;51290;45.060;38.948;2023-08-21T12:53:55;6.05;;;4.32;;
64832;SDS011;51290;45.060;38.948;2023-08-21T12:56:21;12.15;;;4.13;;
64832;SDS011;51290;45.060;38.948;2023-08-21T12:58:49;7.82;;;4.28;;
64832;SDS011;51290;45.060;38.948;2023-08-21T13:01:16;6.15;;;3.78;;
64832;SDS011;51290;45.060;38.948;2023-08-21T13:03:46;6.15;;;4.07;;
64832;SDS011;51290;45.060;38.948;2023-08-21T13:06:13;8.77;;;4.43;;
64832;SDS011;51290;45.060;38.948;2023-08-21T13:08:39;8.10;;;4.38;;
64832;SDS011;51290;45.060;38.948;2023-08-21T13:11:05;8.27;;;5.15;;
64832;SDS011;51290;45.060;38.948;2023-08-21T13:13:32;15.15;;;5.85;;
64832;SDS011;51290;45.060;38.948;2023-08-21T13:15:59;7.85;;;4.68;;
64832;SDS011;51290;45.060;38.948;2023-08-21T13:18:25;11.98;;;5.00;;
64832;SDS011;51290;45.060;38.948;2023-08-21T13:20:52;6.28;;;4.55;;
64832;SDS011;51290;45.060;38.948;2023-08-21T13:23:18;6.90;;;4.75;;
64832;SDS011;51290;45.060;38.948;2023-08-21T13:25:44;8.70;;;4.65;;
64832;SDS011;51290;45.060;38.948;2023-08-21T13:28:10;6.50;;;4.80;;
64832;SDS011;51290;45.060;38.948;2023-08-21T13:30:36;7.93;;;5.13;;
64832;SDS011;51290;45.060;38.948;2023-08-21T13:33:03;16.42;;;4.90;;
64832;SDS011;51290;45.060;38.948;2023-08-21T13:35:30;6.97;;;4.70;;
64832;SDS011;51290;45.060;38.948;2023-08-21T13:37:56;9.52;;;5.18;;
64832;SDS011;51290;45.060;38.948;2023-08-21T13:40:23;6.05;;;4.53;;
64832;SDS011;51290;45.060;38.948;2023-08-21T13:42:49;7.20;;;4.72;;
64832;SDS011;51290;45.060;38.948;2023-08-21T13:45:16;26.08;;;9.35;;
64832;SDS011;51290;45.060;38.948;2023-08-21T13:47:46;7.50;;;5.30;;
64832;SDS011;51290;45.060;38.948;2023-08-21T13:50:13;6.25;;;4.25;;
64832;SDS011;51290;45.060;38.948;2023-08-21T13:52:41;6.70;;;4.20;;
64832;SDS011;51290;45.060;38.948;2023-08-21T13:55:09;10.05;;;4.60;;
64832;SDS011;51290;45.060;38.948;2023-08-21T13:57:36;5.68;;;4.65;;
64832;SDS011;51290;45.060;38.948;2023-08-21T14:00:03;5.07;;;4.22;;
64832;SDS011;51290;45.060;38.948;2023-08-21T14:02:33;6.18;;;4.20;;
64832;SDS011;51290;45.060;38.948;2023-08-21T14:05:00;6.25;;;4.40;;
64832;SDS011;51290;45.060;38.948;2023-08-21T14:07:26;6.63;;;4.90;;
64832;SDS011;51290;45.060;38.948;2023-08-21T14:09:52;15.98;;;5.82;;
64832;SDS011;51290;45.060;38.948;2023-08-21T14:12:26;7.32;;;4.97;;
64832;SDS011;51290;45.060;38.948;2023-08-21T14:14:54;9.25;;;5.00;;
64832;SDS011;51290;45.060;38.948;2023-08-21T14:17:20;8.05;;;5.30;;
64832;SDS011;51290;45.060;38.948;2023-08-21T14:19:46;9.88;;;5.63;;
64832;SDS011;51290;45.060;38.948;2023-08-21T14:22:12;12.80;;;7.25;;
64832;SDS011;51290;45.060;38.948;2023-08-21T14:24:38;10.02;;;6.07;;
64832;SDS011;51290;45.060;38.948;2023-08-21T14:27:04;10.52;;;6.57;;
64832;SDS011;51290;45.060;38.948;2023-08-21T14:29:30;10.48;;;6.72;;
64832;SDS011;51290;45.060;38.948;2023-08-21T14:31:57;12.13;;;6.63;;
64832;SDS011;51290;45.060;38.948;2023-08-21T14:34:27;8.90;;;5.60;;
64832;SDS011;51290;45.060;38.948;2023-08-21T14:36:53;8.10;;;6.28;;
64832;SDS011;51290;45.060;38.948;2023-08-21T14:39:22;10.68;;;6.07;;
64832;SDS011;51290;45.060;38.948;2023-08-21T14:41:53;9.57;;;6.38;;
64832;SDS011;51290;45.060;38.948;2023-08-21T14:44:20;13.35;;;6.45;;
64832;SDS011;51290;45.060;38.948;2023-08-21T14:46:46;10.68;;;6.32;;
64832;SDS011;51290;45.060;38.948;2023-08-21T14:49:15;14.13;;;6.03;;
64832;SDS011;51290;45.060;38.948;2023-08-21T14:51:43;12.88;;;6.18;;